sensor_id;sensor_type;location;lat;lon;timestamp;pressure;altitude;pressure_sealevel;temperature;humidity
71573;BME280;59408;51.032;9.410;2024-02-28T00:00:29;99261.94;;;-2.54;100.00
71573;BME280;59408;51.032;9.410;2024-02-28T00:02:56;99263.00;;;-2.55;100.00
71573;BME280;59408;51.032;9.410;2024-02-28T00:05:22;99259.78;;;-2.57;100.00
71573;BME280;59408;51.032;9.410;2024-02-28T00:07:49;99257.59;;;-2.60;100.00
71573;BME280;59408;51.032;9.410;2024-02-28T00:10:15;99257.59;;;-2.60;100.00
71573;BME280;59408;51.032;9.410;2024-02-28T00:12:42;99251.16;;;-2.64;100.00
71573;BME280;59408;51.032;9.410;2024-02-28T00:15:08;99259.88;;;-2.69;100.00
71573;BME280;59408;51.032;9.410;2024-02-28T00:17:38;99254.22;;;-2.72;100.00
71573;BME280;59408;51.032;9.410;2024-02-28T00:20:06;99252.63;;;-2.73;100.00
71573;BME280;59408;51.032;9.410;2024-02-28T00:22:32;99249.41;;;-2.75;100.00
71573;BME280;59408;51.032;9.410;2024-02-28T00:24:59;99258.13;;;-2.80;100.00
71573;BME280;59408;51.032;9.410;2024-02-28T00:27:25;99262.13;;;-2.82;100.00
71573;BME280;59408;51.032;9.410;2024-02-28T00:29:51;99252.50;;;-2.83;100.00
71573;BME280;59408;51.032;9.410;2024-02-28T00:32:18;99251.91;;;-2.85;100.00
71573;BME280;59408;51.032;9.410;2024-02-28T00:34:46;99255.41;;;-2.85;100.00
71573;BME280;59408;51.032;9.410;2024-02-28T00:37:12;99264.47;;;-2.86;100.00
71573;BME280;59408;51.032;9.410;2024-02-28T00:39:38;99277.22;;;-2.88;100.00
71573;BME280;59408;51.032;9.410;2024-02-28T00:42:05;99275.03;;;-2.91;100.00
71573;BME280;59408;51.032;9.410;2024-02-28T00:44:32;99277.19;;;-2.93;100.00
71573;BME280;59408;51.032;9.410;2024-02-28T00:46:58;99276.59;;;-2.95;100.00
71573;BME280;59408;51.032;9.410;2024-02-28T00:49:25;99274.41;;;-2.98;100.00
71573;BME280;59408;51.032;9.410;2024-02-28T00:51:52;99286.94;;;-2.99;100.00
71573;BME280;59408;51.032;9.410;2024-02-28T00:54:19;99296.81;;;-2.99;100.00
71573;BME280;59408;51.032;9.410;2024-02-28T00:56:46;99290.13;;;-3.02;100.00
71573;BME280;59408;51.032;9.410;2024-02-28T00:59:12;99294.31;;;-3.06;100.00
71573;BME280;59408;51.032;9.410;2024-02-28T01:01:40;99287.34;;;-3.07;100.00
71573;BME280;59408;51.032;9.410;2024-02-28T01:04:06;99288.41;;;-3.08;100.00
71573;BME280;59408;51.032;9.410;2024-02-28T01:06:33;99288.91;;;-3.11;100.00
71573;BME280;59408;51.032;9.410;2024-02-28T01:09:01;99292.28;;;-3.15;100.00
71573;BME280;59408;51.032;9.410;2024-02-28T01:11:29;99293.59;;;-3.18;100.00
71573;BME280;59408;51.032;9.410;2024-02-28T01:13:55;99290.38;;;-3.20;100.00
71573;BME280;59408;51.032;9.410;2024-02-28T01:16:21;99292.47;;;-3.22;100.00
71573;BME280;59408;51.032;9.410;2024-02-28T01:18:48;99297.22;;;-3.24;100.00
71573;BME280;59408;51.032;9.410;2024-02-28T01:21:14;99298.28;;;-3.25;100.00
71573;BME280;59408;51.032;9.410;2024-02-28T01:23:41;99303.31;;;-3.29;100.00
71573;BME280;59408;51.032;9.410;2024-02-28T01:26:09;99305.16;;;-3.29;100.00
71573;BME280;59408;51.032;9.410;2024-02-28T01:28:35;99313.16;;;-3.29;100.00
71573;BME280;59408;51.032;9.410;2024-02-28T01:31:02;99308.38;;;-3.27;100.00
71573;BME280;59408;51.032;9.410;2024-02-28T01:33:28;99299.56;;;-3.28;100.00
71573;BME280;59408;51.032;9.410;2024-02-28T01:35:55;99304.13;;;-3.28;100.00
71573;BME280;59408;51.032;9.410;2024-02-28T01:38:24;99305.47;;;-3.26;100.00
71573;BME280;59408;51.032;9.410;2024-02-28T01:40:51;99299.31;;;-3.26;100.00
71573;BME280;59408;51.032;9.410;2024-02-28T01:43:19;99295.38;;;-3.23;100.00
71573;BME280;59408;51.032;9.410;2024-02-28T01:45:45;99312.25;;;-3.18;100.00
71573;BME280;59408;51.032;9.410;2024-02-28T01:48:12;99303.22;;;-3.17;100.00
71573;BME280;59408;51.032;9.410;2024-02-28T01:50:39;99305.41;;;-3.14;100.00
71573;BME280;59408;51.032;9.410;2024-02-28T01:53:08;99302.00;;;-3.09;100.00
71573;BME280;59408;51.032;9.410;2024-02-28T01:55:35;99301.28;;;-3.05;100.00
71573;BME280;59408;51.032;9.410;2024-02-28T01:58:01;99302.41;;;-3.01;100.00
71573;BME280;59408;51.032;9.410;2024-02-28T02:00:30;99310.72;;;-2.97;100.00
71573;BME280;59408;51.032;9.410;2024-02-28T02:02:57;99310.00;;;-2.93;100.00
71573;BME280;59408;51.032;9.410;2024-02-28T02:05:24;99305.78;;;-2.89;100.00
71573;BME280;59408;51.032;9.410;2024-02-28T02:07:51;99312.03;;;-2.83;100.00
71573;BME280;59408;51.032;9.410;2024-02-28T02:10:17;99313.13;;;-2.79;100.00
71573;BME280;59408;51.032;9.410;2024-02-28T02:12:44;99304.13;;;-2.73;100.00
71573;BME280;59408;51.032;9.410;2024-02-28T02:15:10;99319.47;;;-2.63;100.00
71573;BME280;59408;51.032;9.410;2024-02-28T02:17:38;99311.22;;;-2.62;100.00
71573;BME280;59408;51.032;9.410;2024-02-28T02:20:06;99306.78;;;-2.56;100.00
71573;BME280;59408;51.032;9.410;2024-02-28T02:22:37;99307.31;;;-2.54;100.00
71573;BME280;59408;51.032;9.410;2024-02-28T02:25:04;99305.31;;;-2.47;100.00
71573;BME280;59408;51.032;9.410;2024-02-28T02:27:31;99302.94;;;-2.43;100.00
71573;BME280;59408;51.032;9.410;2024-02-28T02:29:57;99309.16;;;-2.38;100.00
71573;BME280;59408;51.032;9.410;2024-02-28T02:32:24;99308.41;;;-2.33;100.00
71573;BME280;59408;51.032;9.410;2024-02-28T02:34:50;99310.84;;;-2.32;100.00
71573;BME280;59408;51.032;9.410;2024-02-28T02:37:17;99301.78;;;-2.31;100.00
71573;BME280;59408;51.032;9.410;2024-02-28T02:39:44;99299.16;;;-2.26;100.00
71573;BME280;59408;51.032;9.410;2024-02-28T02:42:11;99303.53;;;-2.20;100.00
71573;BME280;59408;51.032;9.410;2024-02-28T02:44:37;99304.31;;;-2.19;100.00
71573;BME280;59408;51.032;9.410;2024-02-28T02:47:04;99302.50;;;-2.14;100.00
71573;BME280;59408;51.032;9.410;2024-02-28T02:49:30;99301.75;;;-2.09;100.00
71573;BME280;59408;51.032;9.410;2024-02-28T02:51:57;99300.19;;;-2.05;100.00
71573;BME280;59408;51.032;9.410;2024-02-28T02:54:23;99307.50;;;-2.00;100.00
71573;BME280;59408;51.032;9.410;2024-02-28T02:56:51;99307.78;;;-1.97;100.00
71573;BME280;59408;51.032;9.410;2024-02-28T02:59:17;99305.19;;;-1.92;100.00
71573;BME280;59408;51.032;9.410;2024-02-28T03:01:44;99305.72;;;-1.90;100.00
71573;BME280;59408;51.032;9.410;2024-02-28T03:04:10;99297.19;;;-1.87;100.00
71573;BME280;59408;51.032;9.410;2024-02-28T03:06:37;99295.38;;;-1.81;100.00
71573;BME280;59408;51.032;9.410;2024-02-28T03:09:03;99288.72;;;-1.79;100.00
71573;BME280;59408;51.032;9.410;2024-02-28T03:11:30;99299.97;;;-1.77;100.00
71573;BME280;59408;51.032;9.410;2024-02-28T03:13:58;99295.72;;;-1.72;100.00
71573;BME280;59408;51.032;9.410;2024-02-28T03:16:24;99297.91;;;-1.69;100.00
71573;BME280;59408;51.032;9.410;2024-02-28T03:18:50;99290.69;;;-1.69;100.00
71573;BME280;59408;51.032;9.410;2024-02-28T03:21:17;99297.97;;;-1.64;100.00
71573;BME280;59408;51.032;9.410;2024-02-28T03:23:44;99298.78;;;-1.64;100.00
71573;BME280;59408;51.032;9.410;2024-02-28T03:26:10;99293.72;;;-1.60;100.00
71573;BME280;59408;51.032;9.410;2024-02-28T03:28:37;99294.28;;;-1.58;100.00
71573;BME280;59408;51.032;9.410;2024-02-28T03:31:04;99295.19;;;-1.48;100.00
71573;BME280;59408;51.032;9.410;2024-02-28T03:33:31;99294.16;;;-1.42;100.00
71573;BME280;59408;51.032;9.410;2024-02-28T03:35:57;99291.72;;;-1.43;100.00
71573;BME280;59408;51.032;9.410;2024-02-28T03:38:24;99294.41;;;-1.43;100.00
71573;BME280;59408;51.032;9.410;2024-02-28T03:40:50;99301.13;;;-1.41;100.00
71573;BME280;59408;51.032;9.410;2024-02-28T03:43:17;99294.72;;;-1.40;100.00
71573;BME280;59408;51.032;9.410;2024-02-28T03:45:43;99306.22;;;-1.39;100.00
71573;BME280;59408;51.032;9.410;2024-02-28T03:48:11;99309.97;;;-1.40;100.00
71573;BME280;59408;51.032;9.410;2024-02-28T03:50:37;99308.34;;;-1.41;100.00
71573;BME280;59408;51.032;9.410;2024-02-28T03:53:04;99317.50;;;-1.37;100.00
71573;BME280;59408;51.032;9.410;2024-02-28T03:55:30;99327.66;;;-1.34;100.00
71573;BME280;59408;51.032;9.410;2024-02-28T03:57:57;99327.41;;;-1.32;100.00
71573;BME280;59408;51.032;9.410;2024-02-28T04:00:24;99317.53;;;-1.32;100.00
71573;BME280;59408;51.032;9.410;2024-02-28T04:02:50;99338.69;;;-1.30;100.00
71573;BME280;59408;51.032;9.410;2024-02-28T04:05:18;99331.22;;;-1.28;100.00
71573;BME280;59408;51.032;9.410;2024-02-28T04:07:45;99329.34;;;-1.28;100.00
71573;BME280;59408;51.032;9.410;2024-02-28T04:10:11;99338.97;;;-1.27;100.00
71573;BME280;59408;51.032;9.410;2024-02-28T04:12:38;99342.19;;;-1.25;100.00
71573;BME280;59408;51.032;9.410;2024-02-28T04:15:05;99353.72;;;-1.24;100.00
71573;BME280;59408;51.032;9.410;2024-02-28T04:17:31;99353.47;;;-1.23;100.00
71573;BME280;59408;51.032;9.410;2024-02-28T04:19:58;99360.19;;;-1.20;100.00
71573;BME280;59408;51.032;9.410;2024-02-28T04:22:25;99364.47;;;-1.19;100.00
71573;BME280;59408;51.032;9.410;2024-02-28T04:24:52;99362.63;;;-1.19;100.00
71573;BME280;59408;51.032;9.410;2024-02-28T04:27:18;99352.72;;;-1.18;100.00
71573;BME280;59408;51.032;9.410;2024-02-28T04:29:45;99358.59;;;-1.16;100.00
71573;BME280;59408;51.032;9.410;2024-02-28T04:32:11;99356.72;;;-1.16;100.00
71573;BME280;59408;51.032;9.410;2024-02-28T04:34:38;99363.69;;;-1.15;100.00
71573;BME280;59408;51.032;9.410;2024-02-28T04:37:04;99355.97;;;-1.11;100.00
71573;BME280;59408;51.032;9.410;2024-02-28T04:39:32;99366.69;;;-1.11;100.00
71573;BME280;59408;51.032;9.410;2024-02-28T04:41:58;99377.41;;;-1.11;100.00
71573;BME280;59408;51.032;9.410;2024-02-28T04:44:25;99374.66;;;-1.16;100.00
71573;BME280;59408;51.032;9.410;2024-02-28T04:46:51;99388.03;;;-1.16;100.00
71573;BME280;59408;51.032;9.410;2024-02-28T04:49:18;99392.84;;;-1.18;100.00
71573;BME280;59408;51.032;9.410;2024-02-28T04:51:44;99387.50;;;-1.18;100.00
71573;BME280;59408;51.032;9.410;2024-02-28T04:54:10;99391.25;;;-1.19;100.00
71573;BME280;59408;51.032;9.410;2024-02-28T04:56:40;99396.03;;;-1.21;100.00
71573;BME280;59408;51.032;9.410;2024-02-28T04:59:07;99404.56;;;-1.24;100.00
71573;BME280;59408;51.032;9.410;2024-02-28T05:01:33;99401.31;;;-1.26;100.00
71573;BME280;59408;51.032;9.410;2024-02-28T05:04:00;99414.63;;;-1.36;100.00
71573;BME280;59408;51.032;9.410;2024-02-28T05:06:27;99410.03;;;-1.36;100.00
71573;BME280;59408;51.032;9.410;2024-02-28T05:08:53;99407.38;;;-1.36;100.00
71573;BME280;59408;51.032;9.410;2024-02-28T05:11:19;99409.81;;;-1.34;100.00
71573;BME280;59408;51.032;9.410;2024-02-28T05:13:47;99411.97;;;-1.31;100.00
71573;BME280;59408;51.032;9.410;2024-02-28T05:16:14;99412.22;;;-1.33;100.00
71573;BME280;59408;51.032;9.410;2024-02-28T05:18:40;99413.72;;;-1.42;100.00
71573;BME280;59408;51.032;9.410;2024-02-28T05:21:07;99408.69;;;-1.39;100.00
71573;BME280;59408;51.032;9.410;2024-02-28T05:23:33;99420.22;;;-1.38;100.00
71573;BME280;59408;51.032;9.410;2024-02-28T05:26:00;99419.44;;;-1.33;100.00
71573;BME280;59408;51.032;9.410;2024-02-28T05:28:26;99416.19;;;-1.35;100.00
71573;BME280;59408;51.032;9.410;2024-02-28T05:30:54;99425.31;;;-1.36;100.00
71573;BME280;59408;51.032;9.410;2024-02-28T05:33:20;99428.28;;;-1.33;100.00
71573;BME280;59408;51.032;9.410;2024-02-28T05:35:47;99433.38;;;-1.31;100.00
71573;BME280;59408;51.032;9.410;2024-02-28T05:38:13;99436.63;;;-1.29;100.00
71573;BME280;59408;51.032;9.410;2024-02-28T05:40:40;99431.84;;;-1.27;100.00
71573;BME280;59408;51.032;9.410;2024-02-28T05:43:07;99430.72;;;-1.31;100.00
71573;BME280;59408;51.032;9.410;2024-02-28T05:45:33;99431.53;;;-1.31;100.00
71573;BME280;59408;51.032;9.410;2024-02-28T05:48:01;99425.34;;;-1.31;100.00
71573;BME280;59408;51.032;9.410;2024-02-28T05:50:28;99427.72;;;-1.35;100.00
71573;BME280;59408;51.032;9.410;2024-02-28T05:52:55;99437.06;;;-1.38;100.00
71573;BME280;59408;51.032;9.410;2024-02-28T05:55:21;99444.81;;;-1.36;100.00
71573;BME280;59408;51.032;9.410;2024-02-28T05:57:47;99459.78;;;-1.40;100.00
71573;BME280;59408;51.032;9.410;2024-02-28T06:00:14;99452.44;;;-1.50;100.00
71573;BME280;59408;51.032;9.410;2024-02-28T06:02:41;99452.13;;;-1.53;100.00
71573;BME280;59408;51.032;9.410;2024-02-28T06:05:09;99455.84;;;-1.54;100.00
71573;BME280;59408;51.032;9.410;2024-02-28T06:07:35;99450.44;;;-1.59;100.00
71573;BME280;59408;51.032;9.410;2024-02-28T06:10:02;99451.22;;;-1.64;100.00
71573;BME280;59408;51.032;9.410;2024-02-28T06:12:28;99454.13;;;-1.65;100.00
71573;BME280;59408;51.032;9.410;2024-02-28T06:14:55;99452.00;;;-1.63;100.00
71573;BME280;59408;51.032;9.410;2024-02-28T06:17:21;99457.84;;;-1.66;100.00
71573;BME280;59408;51.032;9.410;2024-02-28T06:19:48;99455.19;;;-1.66;100.00
71573;BME280;59408;51.032;9.410;2024-02-28T06:22:16;99460.53;;;-1.66;100.00
71573;BME280;59408;51.032;9.410;2024-02-28T06:24:42;99466.94;;;-1.67;100.00
71573;BME280;59408;51.032;9.410;2024-02-28T06:27:09;99471.22;;;-1.66;100.00
71573;BME280;59408;51.032;9.410;2024-02-28T06:29:35;99471.47;;;-1.68;100.00
71573;BME280;59408;51.032;9.410;2024-02-28T06:32:02;99472.72;;;-1.76;100.00
71573;BME280;59408;51.032;9.410;2024-02-28T06:34:28;99473.81;;;-1.71;100.00
71573;BME280;59408;51.032;9.410;2024-02-28T06:36:54;99493.09;;;-1.69;100.00
71573;BME280;59408;51.032;9.410;2024-02-28T06:39:23;99492.50;;;-1.77;100.00
71573;BME280;59408;51.032;9.410;2024-02-28T06:41:49;99494.69;;;-1.73;100.00
71573;BME280;59408;51.032;9.410;2024-02-28T06:44:16;99491.91;;;-1.79;100.00
71573;BME280;59408;51.032;9.410;2024-02-28T06:46:42;99506.91;;;-1.78;100.00
71573;BME280;59408;51.032;9.410;2024-02-28T06:49:08;99496.22;;;-1.78;100.00
71573;BME280;59408;51.032;9.410;2024-02-28T06:51:35;99492.06;;;-1.68;100.00
71573;BME280;59408;51.032;9.410;2024-02-28T06:54:02;99490.25;;;-1.63;100.00
71573;BME280;59408;51.032;9.410;2024-02-28T06:56:30;99502.41;;;-1.55;100.00
71573;BME280;59408;51.032;9.410;2024-02-28T06:58:56;99500.03;;;-1.52;100.00
71573;BME280;59408;51.032;9.410;2024-02-28T07:01:23;99499.47;;;-1.54;100.00
71573;BME280;59408;51.032;9.410;2024-02-28T07:03:49;99515.44;;;-1.59;100.00
71573;BME280;59408;51.032;9.410;2024-02-28T07:06:15;99513.91;;;-1.55;100.00
71573;BME280;59408;51.032;9.410;2024-02-28T07:08:42;99509.91;;;-1.52;100.00
71573;BME280;59408;51.032;9.410;2024-02-28T07:11:13;99516.81;;;-1.56;100.00
71573;BME280;59408;51.032;9.410;2024-02-28T07:13:41;99521.59;;;-1.58;100.00
71573;BME280;59408;51.032;9.410;2024-02-28T07:16:07;99531.50;;;-1.59;100.00
71573;BME280;59408;51.032;9.410;2024-02-28T07:18:34;99525.34;;;-1.59;100.00
71573;BME280;59408;51.032;9.410;2024-02-28T07:21:00;99531.44;;;-1.64;100.00
71573;BME280;59408;51.032;9.410;2024-02-28T07:23:27;99532.97;;;-1.68;100.00
71573;BME280;59408;51.032;9.410;2024-02-28T07:25:53;99530.78;;;-1.71;100.00
71573;BME280;59408;51.032;9.410;2024-02-28T07:28:20;99528.78;;;-1.64;100.00
71573;BME280;59408;51.032;9.410;2024-02-28T07:30:47;99528.81;;;-1.59;100.00
71573;BME280;59408;51.032;9.410;2024-02-28T07:33:15;99530.81;;;-1.49;100.00
71573;BME280;59408;51.032;9.410;2024-02-28T07:35:45;99537.47;;;-1.52;100.00
71573;BME280;59408;51.032;9.410;2024-02-28T07:38:12;99546.75;;;-1.38;100.00
71573;BME280;59408;51.032;9.410;2024-02-28T07:40:39;99545.19;;;-1.33;100.00
71573;BME280;59408;51.032;9.410;2024-02-28T07:43:07;99540.16;;;-1.30;100.00
71573;BME280;59408;51.032;9.410;2024-02-28T07:45:36;99549.44;;;-1.16;100.00
71573;BME280;59408;51.032;9.410;2024-02-28T07:48:05;99539.63;;;-1.10;100.00
71573;BME280;59408;51.032;9.410;2024-02-28T07:50:31;99549.75;;;-1.12;100.00
71573;BME280;59408;51.032;9.410;2024-02-28T07:52:58;99545.09;;;-1.00;100.00
71573;BME280;59408;51.032;9.410;2024-02-28T07:55:24;99550.44;;;-1.00;100.00
71573;BME280;59408;51.032;9.410;2024-02-28T07:57:51;99552.22;;;-1.06;100.00
71573;BME280;59408;51.032;9.410;2024-02-28T08:00:18;99548.75;;;-1.06;100.00
71573;BME280;59408;51.032;9.410;2024-02-28T08:02:44;99545.13;;;-0.95;100.00
71573;BME280;59408;51.032;9.410;2024-02-28T08:05:13;99557.13;;;-0.97;100.00
71573;BME280;59408;51.032;9.410;2024-02-28T08:07:39;99556.41;;;-0.93;100.00
71573;BME280;59408;51.032;9.410;2024-02-28T08:10:06;99554.81;;;-0.89;100.00
71573;BME280;59408;51.032;9.410;2024-02-28T08:12:33;99561.06;;;-0.83;100.00
71573;BME280;59408;51.032;9.410;2024-02-28T08:14:59;99565.41;;;-0.77;100.00
71573;BME280;59408;51.032;9.410;2024-02-28T08:17:26;99566.81;;;-0.70;100.00
71573;BME280;59408;51.032;9.410;2024-02-28T08:19:52;99574.34;;;-0.67;100.00
71573;BME280;59408;51.032;9.410;2024-02-28T08:22:20;99559.13;;;-0.61;100.00
71573;BME280;59408;51.032;9.410;2024-02-28T08:24:46;99565.19;;;-0.71;100.00
71573;BME280;59408;51.032;9.410;2024-02-28T08:27:13;99563.88;;;-0.68;100.00
71573;BME280;59408;51.032;9.410;2024-02-28T08:29:39;99567.69;;;-0.64;100.00
71573;BME280;59408;51.032;9.410;2024-02-28T08:32:06;99570.66;;;-0.60;100.00
71573;BME280;59408;51.032;9.410;2024-02-28T08:34:33;99574.22;;;-0.55;100.00
71573;BME280;59408;51.032;9.410;2024-02-28T08:36:59;99578.50;;;-0.54;100.00
71573;BME280;59408;51.032;9.410;2024-02-28T08:39:27;99578.41;;;-0.37;100.00
71573;BME280;59408;51.032;9.410;2024-02-28T08:41:53;99580.91;;;-0.26;100.00
71573;BME280;59408;51.032;9.410;2024-02-28T08:44:20;99580.00;;;-0.36;100.00
71573;BME280;59408;51.032;9.410;2024-02-28T08:46:47;99592.63;;;-0.37;100.00
71573;BME280;59408;51.032;9.410;2024-02-28T08:49:13;99592.34;;;-0.35;100.00
71573;BME280;59408;51.032;9.410;2024-02-28T08:51:40;99580.78;;;-0.41;100.00
71573;BME280;59408;51.032;9.410;2024-02-28T08:54:06;99591.59;;;-0.31;100.00
71573;BME280;59408;51.032;9.410;2024-02-28T08:56:34;99598.81;;;-0.31;100.00
71573;BME280;59408;51.032;9.410;2024-02-28T08:59:02;99603.97;;;-0.25;100.00
71573;BME280;59408;51.032;9.410;2024-02-28T09:01:28;99597.41;;;-0.39;100.00
71573;BME280;59408;51.032;9.410;2024-02-28T09:03:55;99607.97;;;-0.27;100.00
71573;BME280;59408;51.032;9.410;2024-02-28T09:06:22;99610.59;;;-0.32;100.00
71573;BME280;59408;51.032;9.410;2024-02-28T09:08:48;99617.34;;;-0.30;100.00
71573;BME280;59408;51.032;9.410;2024-02-28T09:11:15;99605.34;;;-0.22;100.00
71573;BME280;59408;51.032;9.410;2024-02-28T09:13:42;99614.22;;;-0.16;100.00
71573;BME280;59408;51.032;9.410;2024-02-28T09:16:09;99619.94;;;-0.08;100.00
71573;BME280;59408;51.032;9.410;2024-02-28T09:18:35;99615.63;;;-0.09;100.00
71573;BME280;59408;51.032;9.410;2024-02-28T09:21:02;99610.91;;;0.03;100.00
71573;BME280;59408;51.032;9.410;2024-02-28T09:23:29;99616.69;;;0.22;100.00
71573;BME280;59408;51.032;9.410;2024-02-28T09:25:55;99610.34;;;0.33;100.00
71573;BME280;59408;51.032;9.410;2024-02-28T09:28:22;99613.94;;;0.49;100.00
71573;BME280;59408;51.032;9.410;2024-02-28T09:30:50;99601.41;;;0.60;100.00
71573;BME280;59408;51.032;9.410;2024-02-28T09:33:19;99604.06;;;0.55;100.00
71573;BME280;59408;51.032;9.410;2024-02-28T09:35:45;99609.22;;;0.66;100.00
71573;BME280;59408;51.032;9.410;2024-02-28T09:38:12;99597.16;;;0.74;100.00
71573;BME280;59408;51.032;9.410;2024-02-28T09:40:38;99597.53;;;0.93;100.00
71573;BME280;59408;51.032;9.410;2024-02-28T09:43:05;99602.41;;;1.01;100.00
71573;BME280;59408;51.032;9.410;2024-02-28T09:45:33;99598.38;;;1.03;100.00
71573;BME280;59408;51.032;9.410;2024-02-28T09:48:02;99597.63;;;1.13;100.00
71573;BME280;59408;51.032;9.410;2024-02-28T09:50:29;99602.53;;;1.26;100.00
71573;BME280;59408;51.032;9.410;2024-02-28T09:52:56;99596.63;;;1.34;100.00
71573;BME280;59408;51.032;9.410;2024-02-28T09:55:35;99596.13;;;1.47;100.00
71573;BME280;59408;51.032;9.410;2024-02-28T09:58:02;99602.63;;;1.72;100.00
71573;BME280;59408;51.032;9.410;2024-02-28T10:00:30;99606.94;;;1.83;100.00
71573;BME280;59408;51.032;9.410;2024-02-28T10:02:57;99604.50;;;1.76;100.00
71573;BME280;59408;51.032;9.410;2024-02-28T10:05:25;99608.03;;;2.12;100.00
71573;BME280;59408;51.032;9.410;2024-02-28T10:07:52;99612.88;;;2.20;100.00
71573;BME280;59408;51.032;9.410;2024-02-28T10:10:19;99619.06;;;2.26;100.00
71573;BME280;59408;51.032;9.410;2024-02-28T10:12:45;99620.16;;;2.35;100.00
71573;BME280;59408;51.032;9.410;2024-02-28T10:15:12;99616.63;;;2.55;100.00
71573;BME280;59408;51.032;9.410;2024-02-28T10:17:38;99623.09;;;2.54;100.00
71573;BME280;59408;51.032;9.410;2024-02-28T10:20:05;99617.19;;;2.42;100.00
71573;BME280;59408;51.032;9.410;2024-02-28T10:22:36;99616.91;;;2.38;100.00
71573;BME280;59408;51.032;9.410;2024-02-28T10:25:03;99624.97;;;2.58;100.00
71573;BME280;59408;51.032;9.410;2024-02-28T10:27:32;99624.94;;;2.68;100.00
71573;BME280;59408;51.032;9.410;2024-02-28T10:29:58;99625.50;;;2.60;100.00
71573;BME280;59408;51.032;9.410;2024-02-28T10:32:25;99632.22;;;2.58;100.00
71573;BME280;59408;51.032;9.410;2024-02-28T10:34:52;99635.47;;;2.45;100.00
71573;BME280;59408;51.032;9.410;2024-02-28T10:37:19;99630.63;;;2.21;100.00
71573;BME280;59408;51.032;9.410;2024-02-28T10:39:48;99630.09;;;2.34;100.00
71573;BME280;59408;51.032;9.410;2024-02-28T10:42:18;99644.06;;;2.47;100.00
71573;BME280;59408;51.032;9.410;2024-02-28T10:44:47;99643.56;;;2.34;100.00
71573;BME280;59408;51.032;9.410;2024-02-28T10:47:15;99642.47;;;2.20;100.00
71573;BME280;59408;51.032;9.410;2024-02-28T10:49:43;99641.66;;;2.40;100.00
71573;BME280;59408;51.032;9.410;2024-02-28T10:52:10;99643.56;;;2.34;100.00
71573;BME280;59408;51.032;9.410;2024-02-28T10:54:39;99642.47;;;2.51;100.00
71573;BME280;59408;51.032;9.410;2024-02-28T10:57:07;99652.91;;;2.83;100.00
71573;BME280;59408;51.032;9.410;2024-02-28T10:59:35;99661.56;;;2.80;100.00
71573;BME280;59408;51.032;9.410;2024-02-28T11:02:03;99647.56;;;2.57;100.00
71573;BME280;59408;51.032;9.410;2024-02-28T11:04:30;99651.06;;;2.68;100.00
71573;BME280;59408;51.032;9.410;2024-02-28T11:06:57;99638.94;;;2.75;100.00
71573;BME280;59408;51.032;9.410;2024-02-28T11:09:25;99641.25;;;3.18;100.00
71573;BME280;59408;51.032;9.410;2024-02-28T11:11:54;99636.41;;;3.14;100.00
71573;BME280;59408;51.032;9.410;2024-02-28T11:14:22;99638.41;;;3.53;100.00
71573;BME280;59408;51.032;9.410;2024-02-28T11:16:59;99631.72;;;3.89;100.00
71573;BME280;59408;51.032;9.410;2024-02-28T11:19:28;99631.03;;;4.08;97.16
71573;BME280;59408;51.032;9.410;2024-02-28T11:21:55;99622.47;;;4.30;94.73
71573;BME280;59408;51.032;9.410;2024-02-28T11:24:23;99622.75;;;4.28;95.84
71573;BME280;59408;51.032;9.410;2024-02-28T11:26:50;99626.59;;;4.22;94.25
71573;BME280;59408;51.032;9.410;2024-02-28T11:29:16;99620.69;;;4.49;94.29
71573;BME280;59408;51.032;9.410;2024-02-28T11:31:44;99611.25;;;4.75;91.34
71573;BME280;59408;51.032;9.410;2024-02-28T11:34:11;99617.03;;;5.59;87.12
71573;BME280;59408;51.032;9.410;2024-02-28T11:36:37;99609.88;;;5.68;84.34
71573;BME280;59408;51.032;9.410;2024-02-28T11:39:05;99607.41;;;5.90;83.98
71573;BME280;59408;51.032;9.410;2024-02-28T11:41:32;99612.88;;;5.85;81.57
71573;BME280;59408;51.032;9.410;2024-02-28T11:43:58;99601.28;;;6.17;81.51
71573;BME280;59408;51.032;9.410;2024-02-28T11:46:25;99611.09;;;6.13;79.53
71573;BME280;59408;51.032;9.410;2024-02-28T11:48:53;99612.19;;;6.12;81.07
71573;BME280;59408;51.032;9.410;2024-02-28T11:51:19;99620.16;;;6.55;80.95
71573;BME280;59408;51.032;9.410;2024-02-28T11:53:46;99613.59;;;6.09;80.89
71573;BME280;59408;51.032;9.410;2024-02-28T11:56:12;99621.97;;;6.59;77.99
71573;BME280;59408;51.032;9.410;2024-02-28T11:58:49;99608.94;;;6.61;77.51
71573;BME280;59408;51.032;9.410;2024-02-28T12:01:15;99616.69;;;6.95;77.70
71573;BME280;59408;51.032;9.410;2024-02-28T12:03:45;99605.13;;;7.31;76.36
71573;BME280;59408;51.032;9.410;2024-02-28T12:06:13;99605.75;;;7.00;79.89
71573;BME280;59408;51.032;9.410;2024-02-28T12:08:39;99602.97;;;6.45;78.15
71573;BME280;59408;51.032;9.410;2024-02-28T12:11:06;99603.84;;;6.73;77.93
71573;BME280;59408;51.032;9.410;2024-02-28T12:13:33;99602.53;;;6.84;79.81
71573;BME280;59408;51.032;9.410;2024-02-28T12:16:00;99599.63;;;6.95;77.33
71573;BME280;59408;51.032;9.410;2024-02-28T12:18:29;99606.16;;;6.80;78.55
71573;BME280;59408;51.032;9.410;2024-02-28T12:20:56;99595.78;;;7.23;77.54
71573;BME280;59408;51.032;9.410;2024-02-28T12:23:24;99592.56;;;7.62;76.10
71573;BME280;59408;51.032;9.410;2024-02-28T12:25:50;99584.66;;;7.38;75.17
71573;BME280;59408;51.032;9.410;2024-02-28T12:28:16;99586.41;;;7.56;74.63
71573;BME280;59408;51.032;9.410;2024-02-28T12:30:43;99587.00;;;7.67;75.52
71573;BME280;59408;51.032;9.410;2024-02-28T12:33:10;99590.88;;;7.88;72.86
71573;BME280;59408;51.032;9.410;2024-02-28T12:35:37;99587.97;;;7.35;76.14
71573;BME280;59408;51.032;9.410;2024-02-28T12:38:03;99601.63;;;7.44;75.40
71573;BME280;59408;51.032;9.410;2024-02-28T12:40:31;99592.19;;;7.41;75.17
71573;BME280;59408;51.032;9.410;2024-02-28T12:42:58;99584.47;;;7.35;78.57
71573;BME280;59408;51.032;9.410;2024-02-28T12:45:24;99575.69;;;7.87;74.50
71573;BME280;59408;51.032;9.410;2024-02-28T12:47:51;99585.31;;;7.57;74.62
71573;BME280;59408;51.032;9.410;2024-02-28T12:50:17;99579.13;;;7.79;75.54
71573;BME280;59408;51.032;9.410;2024-02-28T12:52:44;99569.25;;;7.83;74.31